createdAt,value
2019-06-10T07:47:53.274Z,5.50
2019-06-10T07:55:06.183Z,10.50
2019-06-10T07:56:22.970Z,5.30
2019-06-10T07:57:39.006Z,6.90
2019-06-10T07:59:35.314Z,7.80
2019-06-10T08:00:48.877Z,5.90
2019-06-10T08:02:15.649Z,6.70
2019-06-10T08:03:28.023Z,8.80
2019-06-10T08:04:45.925Z,5.00
2019-06-10T08:05:58.680Z,7.10
2019-06-10T08:07:13.856Z,5.80
2019-06-10T08:08:26.159Z,5.00
2019-06-10T08:09:46.188Z,4.60
2019-06-10T08:11:03.742Z,5.60
2019-06-10T08:12:18.501Z,7.90
2019-06-10T08:13:32.880Z,7.20
2019-06-10T08:14:53.010Z,4.60
2019-06-10T08:16:07.150Z,7.10
2019-06-10T08:17:19.514Z,4.40
2019-06-10T08:19:09.390Z,7.10
2019-06-10T08:20:35.166Z,4.50
2019-06-10T08:21:49.761Z,3.20
2019-06-10T08:23:18.106Z,6.30
2019-06-10T08:24:33.647Z,6.30
2019-06-10T08:25:54.338Z,4.60
2019-06-10T08:27:11.599Z,4.60
2019-06-10T08:28:24.416Z,5.80
2019-06-10T08:29:36.933Z,4.90
2019-06-10T08:30:49.336Z,4.60
2019-06-10T08:32:12.923Z,5.10
2019-06-10T08:33:25.434Z,4.30
2019-06-10T08:34:38.302Z,4.50
2019-06-10T08:36:15.549Z,3.00
2019-06-10T08:37:27.917Z,3.60
2019-06-10T08:38:43.422Z,3.70
2019-06-10T08:39:59.163Z,4.90
2019-06-10T08:41:19.182Z,3.70
2019-06-10T08:42:33.333Z,3.50
2019-06-10T08:43:48.714Z,3.90
2019-06-10T08:45:09.106Z,3.60
2019-06-10T08:46:23.566Z,5.80
2019-06-10T08:47:37.287Z,3.90
2019-06-10T08:48:49.862Z,3.40
2019-06-10T08:50:09.745Z,4.70
2019-06-10T08:51:24.920Z,3.70
2019-06-10T08:53:13.427Z,3.20
2019-06-10T08:54:26.745Z,4.80
2019-06-10T08:55:42.203Z,5.00
2019-06-10T08:56:56.290Z,3.60
2019-06-10T08:58:14.709Z,3.90
2019-06-10T08:59:27.046Z,5.20
2019-06-10T09:00:48.097Z,2.70
2019-06-10T09:02:12.746Z,2.80
2019-06-10T09:03:25.210Z,3.60
2019-06-10T09:04:40.207Z,4.10
2019-06-10T09:05:58.223Z,6.50
2019-06-10T09:07:14.501Z,3.40
2019-06-10T09:08:26.778Z,5.10
2019-06-10T09:09:40.561Z,3.30
2019-06-10T09:10:55.761Z,8.90
2019-06-10T09:12:33.834Z,13.80
2019-06-10T09:13:52.689Z,35.90
2019-06-10T09:15:13.319Z,40.30
2019-06-10T09:16:44.292Z,56.10
2019-06-10T09:18:10.238Z,90.60
2019-06-10T09:19:23.244Z,54.50
2019-06-10T09:20:35.634Z,81.70
2019-06-10T09:21:53.272Z,58.10
2019-06-10T09:23:47.247Z,41.10
2019-06-10T09:25:07.799Z,40.30
2019-06-10T09:26:24.580Z,37.40
2019-06-10T09:27:36.979Z,37.30
2019-06-10T09:28:56.419Z,38.30
2019-06-10T09:30:16.094Z,32.10
2019-06-10T09:31:29.859Z,31.70
2019-06-10T09:32:53.551Z,27.40
2019-06-10T09:34:17.305Z,20.60
2019-06-10T09:35:32.151Z,20.60
2019-06-10T09:36:56.971Z,20.20
2019-06-10T09:38:16.711Z,18.00
2019-06-10T09:39:29.153Z,15.80
2019-06-10T09:40:53.332Z,16.50
2019-06-10T09:42:24.226Z,13.50
2019-06-10T09:43:36.623Z,12.90
2019-06-10T09:44:55.046Z,10.10
2019-06-10T09:46:16.275Z,14.50
2019-06-10T09:47:34.871Z,9.90
2019-06-10T09:48:55.253Z,7.40
2019-06-10T09:50:16.590Z,12.10
2019-06-10T09:51:57.924Z,14.10
2019-06-10T09:53:42.182Z,8.20
2019-06-10T09:54:57.156Z,8.50
2019-06-10T09:56:16.114Z,9.70
2019-06-10T09:57:33.599Z,7.90
2019-06-10T09:58:50.602Z,8.30
2019-06-10T10:00:14.658Z,8.10
2019-06-10T10:04:37.978Z,5.30
2019-06-10T10:06:13.953Z,5.10
2019-06-10T10:07:27.280Z,10.90
2019-06-10T10:08:49.280Z,6.70
2019-06-10T10:10:13.170Z,6.50
2019-06-10T10:11:55.004Z,6.70
2019-06-10T10:13:16.644Z,6.40
2019-06-10T10:14:36.441Z,6.00
2019-06-10T10:15:55.311Z,7.00
2019-06-10T10:17:23.414Z,6.50
2019-06-10T10:18:38.205Z,6.40
2019-06-10T10:19:56.841Z,8.10
2019-06-10T10:21:19.017Z,5.00
2019-06-10T10:22:34.938Z,6.40
2019-06-10T10:24:17.453Z,5.60
2019-06-10T10:25:32.263Z,4.40
2019-06-10T10:26:51.228Z,5.40
2019-06-10T10:28:13.730Z,5.40
2019-06-10T10:29:26.079Z,4.70
2019-06-10T10:30:38.337Z,8.00
2019-06-10T10:31:54.346Z,6.70
2019-06-10T10:33:13.213Z,8.50
2019-06-10T10:34:25.624Z,5.90
2019-06-10T10:35:45.800Z,7.20
2019-06-10T10:37:03.505Z,7.60
2019-06-10T10:38:16.713Z,7.40
2019-06-10T10:39:33.029Z,5.60
2019-06-10T10:40:50.317Z,9.70
2019-06-10T10:42:09.010Z,7.10
2019-06-10T10:43:58.635Z,7.00
2019-06-10T10:45:22.120Z,8.90
2019-06-10T10:46:37.813Z,6.30
2019-06-10T10:47:57.826Z,8.20
2019-06-10T10:49:10.076Z,7.70
2019-06-10T10:50:23.798Z,7.90
2019-06-10T10:51:38.893Z,9.80
2019-06-10T10:52:54.139Z,7.50
2019-06-10T10:54:39.639Z,6.80
2019-06-10T10:55:54.335Z,6.00
2019-06-10T10:57:13.506Z,7.00
2019-06-10T10:58:28.327Z,5.80
2019-06-10T10:59:46.213Z,7.80
2019-06-10T11:01:05.046Z,7.40
2019-06-10T11:02:17.605Z,4.40
2019-06-10T11:03:29.967Z,7.10
2019-06-10T11:04:47.874Z,8.80
2019-06-10T11:06:01.439Z,7.50
2019-06-10T11:07:22.643Z,6.40
2019-06-10T11:08:35.234Z,5.50
2019-06-10T11:09:50.302Z,6.00
2019-06-10T11:11:13.955Z,5.30
2019-06-10T11:12:26.608Z,4.50
2019-06-10T11:13:44.835Z,4.60
2019-06-10T11:15:05.048Z,6.80
2019-06-10T11:16:19.433Z,4.80
2019-06-10T11:17:34.030Z,9.20
2019-06-10T11:18:49.576Z,6.90
2019-06-10T11:20:04.116Z,9.00
2019-06-10T11:21:18.674Z,5.10
2019-06-10T11:22:33.509Z,9.30
2019-06-10T11:23:47.819Z,7.20
2019-06-10T11:25:06.834Z,6.60
2019-06-10T11:26:19.974Z,8.70
2019-06-10T11:27:33.703Z,7.20
2019-06-10T11:28:47.198Z,8.10
2019-06-10T11:30:02.655Z,6.80
2019-06-10T11:31:19.407Z,7.10
2019-06-10T11:32:33.094Z,6.30
2019-06-10T11:33:48.446Z,7.00
2019-06-10T11:35:04.505Z,6.90
2019-06-10T11:36:23.839Z,8.90
2019-06-10T11:37:36.087Z,8.40
2019-06-10T11:38:48.826Z,7.60
2019-06-10T11:40:03.242Z,8.70
2019-06-10T11:41:23.869Z,8.70
2019-06-10T11:42:44.202Z,4.80
2019-06-10T11:43:59.422Z,9.00
2019-06-10T11:45:18.595Z,5.10
2019-06-10T11:46:34.883Z,7.90
2019-06-10T11:47:53.262Z,6.40
2019-06-10T11:49:07.911Z,6.30
2019-06-10T11:50:23.441Z,6.60
2019-06-10T11:51:36.661Z,6.90
2019-06-10T11:52:55.124Z,10.30
2019-06-10T11:54:13.231Z,7.70
2019-06-10T11:55:41.886Z,5.10
2019-06-10T11:56:59.602Z,8.10
2019-06-10T11:58:18.815Z,6.90
2019-06-10T11:59:34.296Z,7.10
2019-06-10T12:00:46.697Z,7.30
2019-06-10T12:02:59.948Z,6.90
2019-06-10T12:04:20.000Z,7.40
2019-06-10T12:05:34.698Z,5.70
2019-06-10T12:06:47.119Z,5.00
2019-06-10T12:08:02.877Z,7.20
2019-06-10T12:09:23.556Z,4.30
2019-06-10T12:10:36.003Z,4.90
2019-06-10T12:11:49.411Z,5.80
2019-06-10T12:13:07.631Z,5.70
2019-06-10T12:14:27.515Z,6.20
2019-06-10T12:17:12.109Z,6.00
2019-06-10T12:18:33.066Z,3.90
2019-06-10T12:19:45.555Z,6.50
2019-06-10T12:21:03.648Z,4.30
2019-06-10T12:22:27.624Z,3.80
2019-06-10T12:23:44.982Z,5.20
2019-06-10T12:25:34.921Z,4.50
2019-06-10T12:26:50.111Z,5.20
2019-06-10T12:28:08.011Z,3.70
2019-06-10T12:29:26.593Z,4.00
2019-06-10T12:30:38.948Z,5.00
2019-06-10T12:32:02.704Z,4.00
2019-06-10T12:33:25.961Z,3.70
2019-06-10T12:34:38.430Z,4.70
2019-06-10T12:35:57.934Z,4.00
2019-06-10T12:37:19.024Z,5.80
2019-06-10T12:38:34.619Z,3.80
2019-06-10T12:39:46.970Z,4.30
2019-06-10T12:41:09.788Z,4.20
2019-06-10T12:42:27.557Z,5.80
2019-06-10T12:43:39.903Z,4.80
2019-06-10T12:44:59.297Z,3.90
2019-06-10T12:46:17.902Z,4.70
2019-06-10T12:47:34.113Z,3.80
2019-06-10T12:48:46.407Z,4.40
2019-06-10T12:49:59.401Z,4.30
2019-06-10T12:51:22.961Z,2.70
2019-06-10T12:52:35.270Z,3.70
2019-06-10T12:53:47.624Z,5.90
2019-06-10T12:55:12.394Z,4.50
2019-06-10T12:56:35.198Z,3.70
2019-06-10T12:57:56.051Z,5.30
2019-06-10T12:59:12.822Z,3.90
2019-06-10T13:00:43.770Z,6.30
2019-06-10T13:02:18.832Z,5.20
2019-06-10T13:03:34.220Z,4.10
2019-06-10T13:04:46.847Z,3.60
2019-06-10T13:06:09.584Z,3.80
2019-06-10T13:07:28.263Z,4.00
2019-06-10T13:08:46.145Z,3.70
2019-06-10T13:09:59.980Z,4.70
2019-06-10T13:11:18.428Z,5.70
2019-06-10T13:12:33.953Z,5.60
2019-06-10T13:13:48.812Z,4.10
2019-06-10T13:15:08.821Z,4.30
2019-06-10T13:16:29.173Z,4.60
2019-06-10T13:17:44.365Z,5.80
2019-06-10T13:18:58.156Z,3.50
2019-06-10T13:20:13.808Z,4.90
2019-06-10T13:21:38.282Z,3.00
2019-06-10T13:22:53.078Z,4.70
2019-06-10T13:24:05.690Z,4.20
2019-06-10T13:25:19.542Z,3.40
2019-06-10T13:26:38.815Z,4.40
2019-06-10T13:27:52.848Z,3.30
2019-06-10T13:29:11.316Z,3.10
2019-06-10T13:31:33.933Z,4.10
2019-06-10T13:32:46.383Z,5.80
2019-06-10T13:34:08.815Z,6.70
2019-06-10T13:35:26.525Z,4.60
2019-06-10T13:36:38.894Z,2.90
2019-06-10T13:37:53.115Z,4.90
2019-06-10T13:39:10.654Z,3.60
2019-06-10T13:40:32.294Z,9.10
2019-06-10T13:41:44.621Z,7.00
2019-06-10T13:42:57.919Z,3.10
2019-06-10T13:44:16.835Z,8.50
2019-06-10T13:45:33.576Z,6.40
2019-06-10T13:47:39.262Z,6.10
2019-06-10T13:48:53.038Z,6.20
2019-06-10T13:50:11.319Z,6.00
2019-06-10T13:51:35.899Z,10.70
2019-06-10T13:52:53.545Z,6.90
2019-06-10T13:54:11.368Z,5.80
2019-06-10T13:55:33.234Z,5.30
2019-06-10T13:57:13.657Z,10.90
2019-06-10T13:58:35.114Z,6.20
2019-06-10T13:59:47.452Z,9.20
2019-06-10T14:01:21.025Z,9.30
2019-06-10T14:02:36.573Z,7.10
2019-06-10T14:03:54.171Z,9.70
2019-06-10T14:05:18.828Z,7.20
2019-06-10T14:07:14.921Z,6.10
2019-06-10T14:08:35.657Z,8.80
2019-06-10T14:09:48.001Z,5.30
2019-06-10T14:11:07.255Z,5.60
2019-06-10T14:12:23.436Z,7.30
2019-06-10T14:13:44.506Z,8.60
2019-06-10T14:14:59.351Z,6.50
2019-06-10T14:16:15.425Z,8.90
2019-06-10T14:17:28.469Z,6.90
2019-06-10T14:18:42.695Z,6.60
2019-06-10T14:19:55.000Z,7.60
2019-06-10T14:21:13.804Z,5.60
2019-06-10T14:22:37.181Z,3.30
2019-06-10T14:23:49.524Z,5.00
2019-06-10T14:25:09.471Z,5.70
2019-06-10T14:26:42.846Z,3.20
2019-06-10T14:27:57.620Z,6.90
2019-06-10T14:29:15.783Z,5.30
2019-06-10T14:30:36.266Z,5.10
2019-06-10T14:32:07.327Z,7.80
2019-06-10T14:33:19.717Z,7.00
2019-06-10T14:34:39.340Z,8.60
2019-06-10T14:35:53.998Z,6.00
2019-06-10T14:37:06.234Z,4.40
2019-06-10T14:38:18.597Z,7.50
2019-06-10T14:39:36.987Z,6.80
2019-06-10T14:40:49.273Z,5.20
2019-06-10T14:42:08.525Z,5.40
2019-06-10T14:43:23.691Z,8.90
2019-06-10T14:44:38.803Z,5.40
2019-06-10T14:45:53.828Z,5.50
2019-06-10T14:47:06.919Z,4.90
2019-06-10T14:48:25.818Z,5.90
2019-06-10T14:49:38.147Z,5.60
2019-06-10T14:50:50.509Z,3.30
2019-06-10T14:52:05.203Z,6.00
2019-06-10T14:53:17.538Z,6.10
2019-06-10T14:55:23.630Z,7.80
2019-06-10T14:56:57.012Z,4.70
2019-06-10T14:58:13.531Z,5.30
2019-06-10T14:59:38.797Z,5.20
2019-06-10T15:00:55.038Z,7.30
2019-06-10T15:02:08.041Z,5.20
2019-06-10T15:03:27.709Z,6.10
2019-06-10T15:04:43.159Z,5.70
2019-06-10T15:05:55.409Z,4.20
2019-06-10T15:07:08.966Z,8.60
2019-06-10T15:08:24.119Z,3.30
2019-06-10T15:09:36.690Z,5.30
2019-06-10T15:10:49.033Z,12.50
2019-06-10T15:12:03.618Z,8.10
2019-06-10T15:13:16.349Z,7.10
2019-06-10T15:14:28.751Z,6.10
2019-06-10T15:15:44.474Z,7.60
2019-06-10T15:16:56.731Z,9.00
2019-06-10T15:18:18.298Z,13.00
2019-06-10T15:19:48.611Z,9.60
2019-06-10T15:21:03.696Z,11.30
2019-06-10T15:22:17.339Z,9.80
2019-06-10T15:23:39.302Z,9.00
2019-06-10T15:24:54.351Z,7.10
2019-06-10T15:26:17.977Z,10.90
2019-06-10T15:27:45.374Z,9.30
2019-06-10T15:28:57.736Z,8.30
2019-06-10T15:30:23.352Z,7.60
2019-06-10T15:31:43.043Z,8.60
2019-06-10T15:33:03.587Z,8.80
2019-06-10T15:34:19.882Z,10.40
2019-06-10T15:35:44.885Z,8.70
2019-06-10T15:36:57.239Z,9.30
2019-06-10T15:38:11.625Z,9.10
2019-06-10T15:39:28.065Z,12.70
2019-06-10T15:40:43.559Z,9.90
2019-06-10T15:41:56.093Z,17.60
2019-06-10T15:43:14.300Z,14.00
2019-06-10T15:44:52.686Z,32.20
2019-06-10T15:46:09.799Z,69.20
2019-06-10T15:47:26.813Z,74.40
2019-06-10T15:48:45.879Z,93.40
2019-06-10T15:50:03.426Z,302.40
2019-06-10T15:51:21.055Z,138.00
2019-06-10T15:52:39.764Z,155.60
2019-06-10T15:53:53.802Z,112.90
2019-06-10T15:55:06.154Z,100.60
2019-06-10T15:56:53.722Z,93.80
2019-06-10T15:58:08.241Z,82.70
2019-06-10T15:59:21.751Z,71.80
2019-06-10T16:00:44.933Z,57.30
2019-06-10T16:01:59.838Z,62.10
2019-06-10T16:03:17.366Z,67.70
2019-06-10T16:04:34.960Z,56.50
2019-06-10T16:05:47.679Z,52.10
2019-06-10T16:07:03.423Z,55.80
2019-06-10T16:08:19.946Z,42.50
2019-06-10T16:09:37.899Z,48.30
2019-06-10T16:10:53.299Z,62.30
2019-06-10T16:12:05.835Z,52.80
2019-06-10T16:13:18.946Z,45.10
2019-06-10T16:14:33.554Z,54.30
2019-06-10T16:15:58.532Z,45.90
2019-06-10T16:17:17.122Z,32.50
2019-06-10T16:18:29.786Z,34.70
2019-06-10T16:19:43.499Z,44.70
2019-06-10T16:20:55.814Z,51.20
2019-06-10T16:22:08.047Z,64.90
2019-06-10T16:23:26.474Z,48.70
2019-06-10T16:24:44.708Z,39.50
2019-06-10T16:25:59.504Z,29.50
2019-06-10T16:27:15.574Z,31.10
2019-06-10T16:28:33.124Z,35.40
2019-06-10T16:29:47.838Z,29.50
2019-06-10T16:31:03.071Z,30.60
2019-06-10T16:32:16.638Z,30.10
2019-06-10T16:33:28.797Z,32.00
2019-06-10T16:34:47.899Z,36.30
2019-06-10T16:36:03.188Z,31.50
2019-06-10T16:37:19.390Z,34.40
2019-06-10T16:38:33.646Z,30.50
2019-06-10T16:39:48.520Z,35.70
2019-06-10T16:41:03.762Z,32.80
2019-06-10T16:42:17.246Z,35.80
2019-06-10T16:43:38.686Z,31.60
2019-06-10T16:44:53.565Z,35.90
2019-06-10T16:46:05.879Z,34.80
2019-06-10T16:47:19.374Z,44.20
2019-06-10T16:48:34.041Z,27.40
2019-06-10T16:49:46.490Z,30.60
2019-06-10T16:50:58.799Z,35.20
2019-06-10T16:52:13.096Z,26.30
2019-06-10T16:53:32.228Z,28.50
2019-06-10T16:54:47.851Z,28.10
2019-06-10T16:56:00.200Z,27.50
2019-06-10T16:57:15.140Z,29.80
2019-06-10T16:58:33.151Z,33.70
2019-06-10T16:59:48.317Z,30.20
2019-06-10T17:01:04.189Z,19.50
2019-06-10T17:02:17.476Z,23.90
2019-06-10T17:03:33.904Z,24.10
2019-06-10T17:04:48.551Z,24.60
2019-06-10T17:06:03.429Z,24.90
2019-06-10T17:07:15.808Z,25.00
2019-06-10T17:08:29.946Z,24.50
2019-06-10T17:09:47.120Z,23.20
2019-06-10T17:10:59.464Z,21.40
2019-06-10T17:12:13.901Z,27.40
2019-06-10T17:13:28.859Z,22.20
2019-06-10T17:14:48.337Z,22.10
2019-06-10T17:16:03.844Z,22.80
2019-06-10T17:17:16.065Z,21.00
2019-06-10T17:18:30.255Z,24.30
2019-06-10T17:19:49.250Z,22.60
2019-06-10T17:21:04.645Z,24.60
2019-06-10T17:22:16.963Z,18.10
2019-06-10T17:23:36.173Z,21.30
2019-06-10T17:24:54.264Z,22.80
2019-06-10T17:26:06.492Z,20.90
2019-06-10T17:27:19.459Z,16.40
2019-06-10T17:28:43.150Z,20.40
2019-06-10T17:29:55.345Z,23.60
2019-06-10T17:31:07.693Z,18.10
2019-06-10T17:32:25.263Z,15.70
2019-06-10T17:33:37.736Z,17.00
2019-06-10T17:34:53.813Z,16.90
2019-06-10T17:36:06.190Z,17.40
2019-06-10T17:37:26.892Z,21.20
2019-06-10T17:38:39.207Z,11.90
2019-06-10T17:39:55.468Z,15.60
2019-06-10T17:41:07.697Z,13.10
2019-06-10T17:42:32.199Z,13.10
2019-06-10T17:43:46.065Z,12.00
2019-06-10T17:45:03.810Z,14.50
2019-06-10T17:46:16.549Z,14.10
2019-06-10T17:47:34.593Z,16.00
2019-06-10T17:48:52.402Z,10.70
2019-06-10T17:50:04.736Z,12.00
2019-06-10T17:51:26.089Z,15.00
2019-06-10T17:52:39.198Z,13.80
2019-06-10T17:53:55.853Z,10.30
2019-06-10T17:55:08.215Z,12.10
2019-06-10T17:56:27.625Z,14.30
2019-06-10T17:57:40.280Z,14.20
2019-06-10T17:59:18.106Z,9.70
2019-06-10T18:00:36.650Z,11.00
2019-06-10T18:01:52.603Z,13.50
2019-06-10T18:03:07.407Z,10.90
2019-06-10T18:04:25.590Z,10.20
2019-06-10T18:05:44.791Z,9.90
2019-06-10T18:07:52.973Z,8.40
2019-06-10T18:09:05.268Z,13.30
2019-06-10T18:10:17.724Z,11.00
2019-06-10T18:11:34.439Z,8.50
2019-06-10T18:12:48.778Z,7.90
2019-06-10T18:14:03.788Z,9.50
2019-06-10T18:15:24.383Z,11.80
2019-06-10T18:16:39.134Z,8.70
2019-06-10T18:17:56.932Z,9.10
2019-06-10T18:19:09.162Z,8.90
2019-06-10T18:20:24.713Z,6.00
2019-06-10T18:21:37.055Z,8.30
2019-06-10T18:22:49.386Z,9.10
2019-06-10T18:24:08.744Z,7.80
2019-06-10T18:25:24.902Z,9.80
2019-06-10T18:26:38.280Z,8.40
2019-06-10T18:27:56.141Z,6.10
2019-06-10T18:29:29.441Z,9.40
2019-06-10T18:30:44.275Z,14.30
2019-06-10T18:31:57.976Z,6.60
2019-06-10T18:33:13.377Z,9.20
2019-06-10T18:34:28.173Z,9.10
2019-06-10T18:35:42.955Z,8.20
2019-06-10T18:36:59.467Z,7.20
2019-06-10T18:38:13.936Z,9.60
2019-06-10T18:39:27.549Z,9.70
2019-06-10T18:40:43.248Z,10.00
2019-06-10T18:41:55.625Z,6.10
2019-06-10T18:43:18.457Z,6.00
2019-06-10T18:44:44.762Z,6.70
2019-06-10T18:46:03.679Z,7.20
2019-06-10T18:47:16.075Z,7.40
2019-06-10T18:48:29.299Z,5.20
2019-06-10T18:49:43.676Z,6.50
2019-06-10T18:51:00.270Z,7.40
2019-06-10T18:52:14.185Z,5.00
2019-06-10T18:53:26.487Z,6.10
2019-06-10T18:54:40.229Z,6.90
2019-06-10T18:56:00.926Z,5.80
2019-06-10T18:57:13.538Z,8.40
2019-06-10T18:58:25.842Z,7.00
2019-06-10T18:59:43.111Z,3.90
2019-06-10T19:01:24.663Z,4.80
2019-06-10T19:02:36.985Z,9.20
2019-06-10T19:03:49.443Z,4.80
2019-06-10T19:05:04.357Z,4.30
2019-06-10T19:06:17.394Z,4.10
2019-06-10T19:07:33.073Z,6.50
2019-06-10T19:08:46.112Z,4.60
2019-06-10T19:10:08.436Z,6.40
2019-06-10T19:11:25.936Z,7.20
2019-06-10T19:12:39.731Z,5.70
2019-06-10T19:14:00.260Z,5.40
2019-06-10T19:15:13.257Z,7.30
2019-06-10T19:16:26.064Z,5.00
2019-06-10T19:17:43.963Z,5.30
2019-06-10T19:18:57.025Z,8.40
2019-06-10T19:20:09.388Z,6.00
2019-06-10T19:21:30.284Z,7.70
2019-06-10T19:22:43.498Z,6.30
2019-06-10T19:23:58.869Z,4.60
2019-06-10T19:25:13.889Z,7.70
2019-06-10T19:26:26.612Z,3.80
2019-06-10T19:27:57.140Z,5.50
2019-06-10T19:29:09.480Z,5.00
2019-06-10T19:30:24.326Z,4.40
2019-06-10T19:31:40.669Z,5.00
2019-06-10T19:32:58.613Z,8.70
2019-06-10T19:34:15.953Z,5.90
2019-06-10T19:35:28.302Z,8.20
2019-06-10T19:36:41.485Z,6.90
2019-06-10T19:37:58.427Z,4.10
2019-06-10T19:39:13.395Z,5.10
2019-06-10T19:40:25.727Z,6.90
2019-06-10T19:41:47.537Z,9.50
2019-06-10T19:43:03.465Z,6.60
2019-06-10T19:44:18.342Z,6.50
2019-06-10T19:45:33.455Z,3.90
2019-06-10T19:46:45.752Z,4.90
2019-06-10T19:48:00.180Z,5.20
2019-06-10T19:49:27.550Z,5.80
2019-06-10T19:50:50.395Z,4.40
2019-06-10T19:52:08.814Z,5.00
2019-06-10T19:53:23.484Z,5.20
2019-06-10T19:54:37.256Z,7.00
2019-06-10T19:55:49.484Z,3.90
2019-06-10T19:57:03.028Z,4.00
2019-06-10T19:58:15.345Z,5.80
2019-06-10T19:59:27.676Z,4.60
2019-06-10T20:00:40.046Z,5.00
2019-06-10T20:01:56.656Z,4.40
2019-06-10T20:03:09.015Z,5.70
2019-06-10T20:04:23.565Z,4.90
2019-06-10T20:05:37.744Z,5.60
2019-06-10T20:06:54.426Z,3.60
2019-06-10T20:08:14.152Z,4.80
2019-06-10T20:09:26.485Z,5.10
2019-06-10T20:10:40.115Z,4.50
2019-06-10T20:11:53.148Z,4.90
2019-06-10T20:13:07.616Z,3.80
2019-06-10T20:14:19.884Z,5.60
2019-06-10T20:15:35.547Z,4.90
2019-06-10T20:16:48.487Z,3.90
2019-06-10T20:18:03.050Z,3.70
2019-06-10T20:19:17.956Z,4.40
2019-06-10T20:20:33.575Z,4.00
2019-06-10T20:21:47.070Z,4.70
2019-06-10T20:23:09.165Z,4.50
2019-06-10T20:24:23.794Z,9.30
2019-06-10T20:25:36.519Z,4.60
2019-06-10T20:26:48.911Z,3.20
2019-06-10T20:28:06.103Z,4.80
2019-06-10T20:29:22.492Z,4.40
2019-06-10T20:30:49.526Z,3.00
2019-06-10T20:32:09.344Z,8.40
2019-06-10T20:33:24.410Z,4.70
2019-06-10T20:34:45.002Z,3.80
2019-06-10T20:35:58.436Z,3.70
2019-06-10T20:37:13.448Z,4.20
2019-06-10T20:39:19.075Z,3.50
2019-06-10T20:40:35.330Z,5.00
2019-06-10T20:41:55.380Z,3.70
2019-06-10T20:43:07.931Z,4.60
2019-06-10T20:44:22.537Z,3.00
2019-06-10T20:45:34.924Z,3.70
2019-06-10T20:46:49.429Z,5.60
2019-06-10T20:48:09.082Z,4.20
2019-06-10T20:49:24.182Z,3.50
2019-06-10T20:50:36.425Z,3.20
2019-06-10T20:52:07.766Z,2.70
2019-06-10T20:53:42.383Z,3.10
2019-06-10T20:54:55.099Z,5.20
2019-06-10T20:56:23.236Z,5.40
2019-06-10T20:58:02.104Z,3.90
2019-06-10T20:59:15.438Z,3.60
2019-06-10T21:00:56.784Z,4.20
2019-06-10T21:02:13.836Z,3.50
2019-06-10T21:03:29.124Z,4.40
2019-06-10T21:04:44.953Z,4.60
2019-06-10T21:06:03.189Z,4.60
2019-06-10T21:07:18.083Z,5.30
2019-06-10T21:08:33.659Z,4.90
2019-06-10T21:09:54.277Z,4.60
2019-06-10T21:11:15.486Z,3.40
2019-06-10T21:12:33.944Z,4.20
2019-06-10T21:13:51.113Z,4.80
2019-06-10T21:15:14.087Z,3.60
2019-06-10T21:16:29.068Z,3.40
2019-06-10T21:17:47.568Z,4.30
2019-06-10T21:19:05.872Z,3.70
2019-06-10T21:20:18.118Z,3.40
2019-06-10T21:21:32.873Z,3.00
2019-06-10T21:22:47.473Z,5.30
2019-06-10T21:24:05.581Z,5.20
2019-06-10T21:25:23.249Z,4.30
2019-06-10T21:26:35.681Z,3.80
2019-06-10T21:27:52.046Z,5.20
2019-06-10T21:29:16.046Z,3.80
2019-06-10T21:30:48.223Z,3.20
2019-06-10T21:32:09.264Z,4.00
2019-06-10T21:33:24.584Z,5.40
2019-06-10T21:34:36.917Z,4.90
2019-06-10T21:35:54.783Z,4.00
2019-06-10T21:37:12.409Z,4.00
2019-06-10T21:38:24.738Z,2.30
2019-06-10T21:39:37.098Z,3.10
2019-06-10T21:40:54.475Z,3.10
2019-06-10T21:42:14.526Z,5.10
2019-06-10T21:43:33.921Z,3.30
2019-06-10T21:44:46.275Z,3.20
2019-06-10T21:45:58.518Z,2.90
2019-06-10T21:48:09.196Z,3.40
2019-06-10T21:49:24.101Z,2.80
2019-06-10T21:50:36.436Z,5.10
2019-06-10T21:51:57.307Z,3.10
2019-06-10T21:53:09.776Z,3.30
2019-06-10T21:54:24.016Z,2.60
2019-06-10T21:55:36.330Z,3.30
2019-06-10T21:56:49.113Z,3.30
2019-06-10T21:58:06.015Z,4.00
2019-06-10T21:59:19.168Z,2.40
2019-06-10T22:01:00.383Z,3.20
2019-06-10T22:02:15.821Z,4.20
2019-06-10T22:03:28.185Z,3.30
2019-06-10T22:04:46.323Z,2.80
2019-06-10T22:05:58.915Z,3.80
2019-06-10T22:07:16.949Z,3.40
2019-06-10T22:08:29.309Z,3.80
2019-06-10T22:09:45.334Z,2.90
2019-06-10T22:11:03.081Z,2.50
2019-06-10T22:12:16.768Z,2.20
2019-06-10T22:13:29.124Z,3.40
2019-06-10T22:14:44.415Z,4.00
2019-06-10T22:15:59.130Z,2.20
2019-06-10T22:17:17.025Z,3.60
2019-06-10T22:18:29.361Z,3.00
2019-06-10T22:19:44.759Z,3.80
2019-06-10T22:20:58.021Z,2.90
2019-06-10T22:22:14.302Z,3.40
2019-06-10T22:23:26.565Z,2.70
2019-06-10T22:24:38.925Z,4.10
2019-06-10T22:25:57.751Z,3.30
2019-06-10T22:27:10.168Z,3.80
2019-06-10T22:28:24.962Z,3.30
2019-06-10T22:29:37.441Z,2.80
2019-06-10T22:30:49.722Z,2.40
2019-06-10T22:32:03.815Z,2.40
2019-06-10T22:33:18.700Z,4.00
2019-06-10T22:34:33.469Z,3.30
2019-06-10T22:35:45.680Z,3.10
2019-06-10T22:36:58.047Z,3.80
2019-06-10T22:38:13.425Z,3.10
2019-06-10T22:39:25.858Z,2.50
2019-06-10T22:40:38.206Z,2.80
2019-06-10T22:41:55.609Z,2.80
2019-06-10T22:43:10.204Z,2.70
2019-06-10T22:44:24.928Z,2.20
2019-06-10T22:45:41.774Z,3.40
2019-06-10T22:46:57.187Z,3.30
2019-06-10T22:48:16.290Z,4.90
2019-06-10T22:49:28.659Z,2.60
2019-06-10T22:50:43.939Z,2.60
2019-06-10T22:52:00.309Z,2.70
2019-06-10T22:53:18.013Z,2.70
2019-06-10T22:54:32.564Z,4.10
2019-06-10T22:55:44.838Z,2.70
2019-06-10T22:56:58.917Z,2.90
2019-06-10T22:58:23.902Z,2.60
2019-06-10T22:59:36.977Z,2.90
2019-06-10T23:00:52.491Z,2.00
2019-06-10T23:02:06.518Z,2.50
2019-06-10T23:03:22.219Z,2.60
2019-06-10T23:04:34.521Z,4.70
2019-06-10T23:05:48.105Z,2.90
2019-06-10T23:07:03.340Z,3.00
2019-06-10T23:08:19.621Z,2.30
2019-06-10T23:09:33.941Z,2.90
2019-06-10T23:10:46.273Z,3.00
2019-06-10T23:11:59.493Z,2.90
2019-06-10T23:13:17.377Z,4.10
2019-06-10T23:14:29.780Z,4.10
2019-06-10T23:15:44.358Z,2.50
2019-06-10T23:16:59.912Z,4.30
2019-06-10T23:18:18.078Z,3.20
2019-06-10T23:19:30.236Z,2.80
2019-06-10T23:20:45.084Z,2.20
2019-06-10T23:21:59.882Z,3.60
2019-06-10T23:23:18.339Z,2.70
2019-06-10T23:24:34.394Z,3.40
2019-06-10T23:25:46.756Z,2.40
2019-06-10T23:27:02.984Z,2.60
2019-06-10T23:28:22.584Z,3.70
2019-06-10T23:29:37.347Z,2.40
2019-06-10T23:30:50.257Z,2.50
2019-06-10T23:32:22.532Z,4.80
2019-06-10T23:33:34.729Z,1.90
2019-06-10T23:34:49.485Z,3.20
2019-06-10T23:36:04.386Z,2.40
2019-06-10T23:37:23.108Z,1.90
2019-06-10T23:38:35.273Z,2.90
2019-06-10T23:39:47.639Z,3.00
2019-06-10T23:41:03.934Z,5.10
2019-06-10T23:42:20.123Z,4.00
2019-06-10T23:43:34.964Z,2.80
2019-06-10T23:44:55.396Z,3.00
2019-06-10T23:46:07.796Z,1.90
2019-06-10T23:47:24.016Z,3.20
2019-06-10T23:48:38.822Z,2.30
2019-06-10T23:49:56.177Z,1.90
2019-06-10T23:51:16.354Z,2.30
2019-06-10T23:52:28.726Z,1.70
2019-06-10T23:53:43.771Z,2.30
2019-06-10T23:54:56.113Z,3.00
2019-06-10T23:56:08.385Z,1.50
2019-06-10T23:57:27.168Z,2.10
2019-06-10T23:58:45.837Z,2.00
